Time;durP1;ratioP1;P1;durP2;ratioP2;P2;SDS_P1;SDS_P2;PMS_P1;PMS_P2;Temp;Humidity;BMP_temperature;BMP_pressure;BME280_temperature;BME280_humidity;BME280_pressure;Samples;Min_cycle;Max_cycle;Signal;HPM_P1;HPM_P2
2022/04/20 00:02:07;;;;;;;5.82;2.72;;;13.20;68.50;;;;;;7346055;19;107852;-85
2022/04/20 00:04:35;;;;;;;3.97;2.15;;;13.10;68.70;;;;;;7344025;19;108447;-84
2022/04/20 00:07:03;;;;;;;5.32;2.33;;;13.10;68.70;;;;;;7343140;19;107872;-85
2022/04/20 00:09:30;;;;;;;5.28;2.42;;;13.10;68.80;;;;;;7342908;19;109560;-86
2022/04/20 00:11:57;;;;;;;4.50;2.65;;;13.10;68.80;;;;;;7343274;19;108283;-85
2022/04/20 00:14:24;;;;;;;8.73;2.67;;;13.10;68.70;;;;;;7347236;19;109036;-86
2022/04/20 00:16:51;;;;;;;3.65;2.55;;;13.10;68.80;;;;;;7340262;19;108187;-84
2022/04/20 00:19:19;;;;;;;3.92;2.40;;;13.10;68.90;;;;;;7341336;19;107385;-86
2022/04/20 00:21:46;;;;;;;4.90;3.03;;;13.00;69.40;;;;;;7345105;19;108276;-85
2022/04/20 00:24:13;;;;;;;3.10;2.47;;;12.90;69.50;;;;;;7344315;19;108813;-85
2022/04/20 00:26:42;;;;;;;4.10;2.90;;;12.80;69.80;;;;;;7343814;19;108894;-85
2022/04/20 00:29:09;;;;;;;4.75;2.55;;;12.80;70.00;;;;;;7342732;19;111066;-85
2022/04/20 00:31:36;;;;;;;2.80;2.60;;;12.80;69.90;;;;;;7344971;19;108251;-85
2022/04/20 00:34:03;;;;;;;4.20;2.72;;;12.70;69.90;;;;;;7344633;19;109006;-86
2022/04/20 00:36:30;;;;;;;4.53;2.70;;;12.60;70.20;;;;;;7348346;19;107995;-86
2022/04/20 00:38:57;;;;;;;4.68;3.03;;;12.60;70.40;;;;;;7343115;19;109301;-85
2022/04/20 00:41:24;;;;;;;9.98;2.65;;;12.60;70.60;;;;;;7342688;19;107405;-85
2022/04/20 00:43:52;;;;;;;3.47;2.50;;;12.50;70.60;;;;;;7341225;19;108970;-85
2022/04/20 00:46:21;;;;;;;6.85;2.67;;;12.50;70.80;;;;;;7343588;19;109388;-85
2022/04/20 00:48:51;;;;;;;3.13;2.45;;;12.50;70.80;;;;;;7343363;19;108418;-84
2022/04/20 00:51:19;;;;;;;5.60;2.72;;;12.50;70.90;;;;;;7343440;19;107688;-85
2022/04/20 00:53:47;;;;;;;5.20;2.85;;;12.50;70.70;;;;;;7340888;19;109000;-86
2022/04/20 00:56:14;;;;;;;3.13;2.80;;;12.40;71.00;;;;;;7343090;19;110996;-85
2022/04/20 00:58:43;;;;;;;3.33;2.53;;;12.50;70.70;;;;;;7344759;19;108585;-86
2022/04/20 01:01:10;;;;;;;5.07;2.60;;;12.40;71.00;;;;;;7343851;19;108064;-86
2022/04/20 01:03:37;;;;;;;13.43;3.05;;;12.40;70.80;;;;;;7342254;19;108466;-85
2022/04/20 01:06:06;;;;;;;3.83;2.53;;;12.50;70.50;;;;;;7339724;19;108924;-85
2022/04/20 01:08:33;;;;;;;6.22;2.95;;;12.40;70.70;;;;;;7339063;19;108039;-86
2022/04/20 01:11:01;;;;;;;5.05;3.03;;;12.40;71.00;;;;;;7342232;19;109385;-86
2022/04/20 01:13:29;;;;;;;3.90;2.67;;;12.30;71.20;;;;;;7338648;19;108476;-86
2022/04/20 01:15:58;;;;;;;4.95;2.70;;;12.30;71.40;;;;;;7342316;19;107657;-85
2022/04/20 01:18:25;;;;;;;5.30;2.92;;;12.30;71.30;;;;;;7339445;19;108554;-85
2022/04/20 01:20:52;;;;;;;3.95;2.78;;;12.30;71.20;;;;;;7345402;19;108866;-85
2022/04/20 01:23:19;;;;;;;;;;;12.20;71.50;;;;;;7342697;19;108276;-86
2022/04/20 01:25:47;;;;;;;5.13;2.78;;;12.10;72.10;;;;;;7344954;19;109233;-85
2022/04/20 01:28:15;;;;;;;5.10;2.92;;;12.00;71.90;;;;;;7339796;19;107267;-85
2022/04/20 01:30:42;;;;;;;6.38;3.03;;;12.00;72.00;;;;;;7343384;19;108522;-86
2022/04/20 01:33:09;;;;;;;5.38;3.13;;;11.90;72.30;;;;;;7342609;19;109196;-86
2022/04/20 01:35:36;;;;;;;5.18;3.17;;;11.90;72.50;;;;;;7342069;19;108273;-86
2022/04/20 01:38:03;;;;;;;4.85;2.80;;;12.00;72.30;;;;;;7339211;19;107258;-86
2022/04/20 01:40:31;;;;;;;3.35;3.05;;;11.90;72.40;;;;;;7342803;19;109065;-86
2022/04/20 01:42:58;;;;;;;4.57;2.63;;;12.00;72.00;;;;;;7345000;19;107985;-86
2022/04/20 01:45:25;;;;;;;4.13;3.00;;;12.00;72.10;;;;;;7339387;19;112271;-85
2022/04/20 01:47:52;;;;;;;4.03;2.60;;;12.00;72.50;;;;;;7339679;19;108257;-85
2022/04/20 01:50:19;;;;;;;;;;;11.90;72.80;;;;;;7341449;19;107241;-86
2022/04/20 01:52:50;;;;;;;4.40;2.73;;;11.80;73.00;;;;;;7343663;19;109212;-86
2022/04/20 01:55:17;;;;;;;6.88;3.03;;;11.70;73.20;;;;;;7339636;19;107493;-85
2022/04/20 01:57:44;;;;;;;4.72;2.75;;;11.70;72.80;;;;;;7338092;19;107952;-85
2022/04/20 02:00:12;;;;;;;3.53;2.85;;;11.80;72.60;;;;;;7338661;19;107845;-86
2022/04/20 02:02:39;;;;;;;7.50;2.80;;;11.90;72.50;;;;;;7343525;19;108924;-85
2022/04/20 02:05:12;;;;;;;5.20;2.90;;;11.80;72.50;;;;;;7341245;19;109074;-86
2022/04/20 02:07:39;;;;;;;3.97;2.83;;;11.80;72.60;;;;;;7342571;19;108576;-86
2022/04/20 02:10:07;;;;;;;5.40;2.65;;;11.70;73.00;;;;;;7339797;19;108511;-87
2022/04/20 02:12:34;;;;;;;9.70;2.85;;;11.70;72.90;;;;;;7340549;19;109384;-86
2022/04/20 02:15:01;;;;;;;4.28;2.80;;;11.70;73.00;;;;;;7341182;19;107940;-86
2022/04/20 02:17:29;;;;;;;4.55;2.65;;;11.60;73.50;;;;;;7340126;19;108057;-87
2022/04/20 02:19:59;;;;;;;5.10;2.80;;;11.60;73.70;;;;;;7339261;19;109193;-86
2022/04/20 02:22:27;;;;;;;5.97;3.15;;;11.60;73.50;;;;;;7339344;19;108578;-86
2022/04/20 02:24:54;;;;;;;5.97;2.75;;;11.50;73.70;;;;;;7344563;19;111384;-85
2022/04/20 02:27:22;;;;;;;4.50;2.67;;;11.50;73.90;;;;;;7340922;19;107850;-87
2022/04/20 02:29:49;;;;;;;3.30;2.85;;;11.50;73.80;;;;;;7339606;19;108272;-85
2022/04/20 02:32:16;;;;;;;6.10;3.17;;;11.50;73.70;;;;;;7343408;19;108945;-86
2022/04/20 02:34:43;;;;;;;4.10;2.80;;;11.40;74.00;;;;;;7348747;19;107553;-86
2022/04/20 02:37:12;;;;;;;4.00;2.85;;;11.40;73.90;;;;;;7348421;19;107992;-86
2022/04/20 02:39:42;;;;;;;4.80;2.67;;;11.40;74.20;;;;;;7347026;19;107729;-86
2022/04/20 02:42:11;;;;;;;4.47;2.92;;;11.30;74.60;;;;;;7343392;19;108427;-86
2022/04/20 02:44:39;;;;;;;3.97;2.83;;;11.30;74.40;;;;;;7347380;19;108239;-87
2022/04/20 02:47:07;;;;;;;5.85;3.15;;;11.30;74.40;;;;;;7352109;19;109740;-86
2022/04/20 02:49:35;;;;;;;3.70;2.78;;;11.20;74.90;;;;;;7344781;19;109823;-86
2022/04/20 02:52:03;;;;;;;4.97;2.80;;;11.20;75.00;;;;;;7347314;19;108123;-87
2022/04/20 02:54:30;;;;;;;5.90;2.70;;;11.20;75.20;;;;;;7348739;19;107966;-87
2022/04/20 02:56:57;;;;;;;4.10;2.83;;;11.10;75.20;;;;;;7348063;19;108264;-87
2022/04/20 02:59:24;;;;;;;4.65;3.15;;;11.10;75.40;;;;;;7342551;19;108680;-86
2022/04/20 03:01:51;;;;;;;;;;;11.10;75.60;;;;;;7347821;19;107921;-85
2022/04/20 03:04:18;;;;;;;6.47;2.60;;;11.00;75.90;;;;;;7348783;19;109062;-86
2022/04/20 03:06:45;;;;;;;4.80;3.08;;;10.90;76.00;;;;;;7342935;19;108331;-85
2022/04/20 03:09:16;;;;;;;5.82;2.83;;;10.90;76.00;;;;;;7349078;19;107952;-82
2022/04/20 03:11:43;;;;;;;8.80;3.10;;;10.90;76.50;;;;;;7341023;19;108933;-82
2022/04/20 03:14:10;;;;;;;;;;;10.80;76.70;;;;;;7346967;19;108196;-81
2022/04/20 03:16:38;;;;;;;3.75;3.15;;;10.70;77.70;;;;;;7348288;19;107887;-81
2022/04/20 03:19:05;;;;;;;4.82;3.10;;;10.60;77.50;;;;;;7345140;19;108999;-81
2022/04/20 03:21:35;;;;;;;4.65;2.97;;;10.60;77.70;;;;;;7345862;19;107661;-81
2022/04/20 03:24:02;;;;;;;4.50;2.88;;;10.50;77.80;;;;;;7346460;19;111402;-81
2022/04/20 03:26:30;;;;;;;3.47;2.65;;;10.50;78.00;;;;;;7345430;19;112228;-81
2022/04/20 03:28:57;;;;;;;5.55;3.05;;;10.40;78.40;;;;;;7344085;19;109075;-82
2022/04/20 03:31:24;;;;;;;4.65;3.08;;;10.40;78.60;;;;;;7351239;19;108981;-81
2022/04/20 03:33:57;;;;;;;4.53;2.97;;;10.40;78.60;;;;;;7346141;19;108208;-81
2022/04/20 03:36:24;;;;;;;5.18;2.90;;;10.40;78.90;;;;;;7346419;19;108310;-81
2022/04/20 03:38:51;;;;;;;5.47;3.30;;;10.40;79.20;;;;;;7344593;19;109235;-81
2022/04/20 03:41:19;;;;;;;5.25;3.38;;;10.30;79.50;;;;;;7345807;19;108536;-81
2022/04/20 03:43:46;;;;;;;6.22;3.08;;;10.20;79.50;;;;;;7340277;19;110700;-81
2022/04/20 03:46:12;;;;;;;;;;;10.20;79.80;;;;;;7346100;19;109455;-81
2022/04/20 03:48:40;;;;;;;5.30;3.30;;;10.20;80.40;;;;;;7348326;19;108389;-81
2022/04/20 03:51:07;;;;;;;7.22;3.63;;;10.10;80.50;;;;;;7345228;19;107267;-81
2022/04/20 03:53:34;;;;;;;6.25;3.33;;;10.20;80.20;;;;;;7349639;19;108518;-81
2022/04/20 03:56:01;;;;;;;;;;;10.10;80.00;;;;;;7342942;19;108136;-82
2022/04/20 03:58:28;;;;;;;8.55;3.15;;;10.10;80.80;;;;;;7347620;19;108862;-81
2022/04/20 04:00:55;;;;;;;4.63;3.30;;;10.00;80.80;;;;;;7343790;19;107605;-81
2022/04/20 04:03:22;;;;;;;3.92;2.88;;;10.00;80.90;;;;;;7344999;19;108179;-81
2022/04/20 04:05:49;;;;;;;6.18;3.00;;;10.00;81.10;;;;;;7344268;19;109188;-81
2022/04/20 04:08:16;;;;;;;;;;;10.00;80.90;;;;;;7344762;19;107915;-81
2022/04/20 04:10:43;;;;;;;4.28;2.97;;;9.90;81.40;;;;;;7348098;19;107887;-82
2022/04/20 04:13:11;;;;;;;4.85;2.78;;;10.00;80.70;;;;;;7347160;19;108809;-82
2022/04/20 04:15:38;;;;;;;7.22;3.03;;;10.00;80.30;;;;;;7344573;19;107141;-81
2022/04/20 04:18:05;;;;;;;7.28;3.00;;;10.00;80.60;;;;;;7343258;19;109572;-81
2022/04/20 04:20:32;;;;;;;;;;;10.00;80.50;;;;;;7345702;19;111997;-81
2022/04/20 04:22:59;;;;;;;6.05;3.15;;;10.00;80.80;;;;;;7345755;19;108084;-81
2022/04/20 04:25:27;;;;;;;6.55;3.47;;;10.10;80.20;;;;;;7344530;19;107851;-81
2022/04/20 04:27:54;;;;;;;5.63;3.10;;;10.10;80.20;;;;;;7343469;19;111532;-82
2022/04/20 04:30:21;;;;;;;4.25;3.03;;;10.00;80.20;;;;;;7344983;19;108530;-82
2022/04/20 04:32:48;;;;;;;8.20;3.15;;;10.10;80.40;;;;;;7342500;19;107842;-81
2022/04/20 04:35:17;;;;;;;6.80;2.95;;;10.10;80.20;;;;;;7350328;19;107738;-81
2022/04/20 04:37:45;;;;;;;7.25;3.03;;;10.00;80.70;;;;;;7343467;19;110164;-82
2022/04/20 04:40:14;;;;;;;5.15;3.05;;;9.90;80.90;;;;;;7344738;19;109055;-81
2022/04/20 04:42:41;;;;;;;8.52;3.35;;;9.80;81.60;;;;;;7343727;19;107578;-82
2022/04/20 04:50:40;;;;;;;5.55;3.22;;;9.60;82.50;;;;;;7343363;19;108228;-81
2022/04/20 04:53:07;;;;;;;8.20;3.28;;;9.90;82.40;;;;;;7342650;19;108912;-81
2022/04/20 04:55:34;;;;;;;7.68;2.97;;;10.00;82.00;;;;;;7344159;19;107562;-81
2022/04/20 04:58:01;;;;;;;6.38;3.05;;;9.80;82.50;;;;;;7348837;19;110753;-81
2022/04/20 05:00:28;;;;;;;6.97;3.28;;;9.80;82.30;;;;;;7342124;19;108200;-82
2022/04/20 05:02:55;;;;;;;4.72;3.03;;;9.70;82.60;;;;;;7342500;19;108146;-81
2022/04/20 05:05:22;;;;;;;9.52;3.22;;;9.70;82.90;;;;;;7343250;19;108881;-82
2022/04/20 05:07:54;;;;;;;6.00;2.90;;;9.70;82.90;;;;;;7343327;19;106814;-81
2022/04/20 05:10:22;;;;;;;8.95;3.00;;;9.70;82.90;;;;;;7345383;19;108313;-83
2022/04/20 05:12:49;;;;;;;3.92;2.97;;;9.70;82.80;;;;;;7338022;19;109097;-82
2022/04/20 05:15:16;;;;;;;8.20;3.00;;;9.80;82.90;;;;;;7343219;19;110863;-83
2022/04/20 05:17:43;;;;;;;3.67;2.90;;;9.90;82.50;;;;;;7345988;19;108408;-83
2022/04/20 05:20:11;;;;;;;7.78;3.15;;;10.00;82.40;;;;;;7346748;19;108993;-83
2022/04/20 05:22:38;;;;;;;8.15;3.13;;;10.00;82.30;;;;;;7343786;19;108183;-83
2022/04/20 05:25:05;;;;;;;5.03;2.95;;;9.90;82.40;;;;;;7343847;19;108125;-83
2022/04/20 05:27:32;;;;;;;8.27;2.85;;;9.90;82.50;;;;;;7342662;19;109694;-83
2022/04/20 05:29:59;;;;;;;11.73;2.85;;;10.00;82.40;;;;;;7342622;19;108258;-83
2022/04/20 05:32:27;;;;;;;4.55;2.70;;;10.20;82.20;;;;;;7341909;19;109141;-81
2022/04/20 05:35:01;;;;;;;6.03;3.28;;;10.20;81.90;;;;;;7345512;19;108117;-83
2022/04/20 05:43:05;;;;;;;6.82;3.03;;;10.80;80.70;;;;;;7348930;19;107680;-83
2022/04/20 05:45:32;;;;;;;8.77;2.70;;;11.00;80.10;;;;;;7343523;19;106922;-83
2022/04/20 05:47:59;;;;;;;5.50;2.80;;;11.00;80.10;;;;;;7342480;19;107040;-83
2022/04/20 05:50:26;;;;;;;11.02;3.08;;;11.10;79.70;;;;;;7344536;19;107486;-83
2022/04/20 05:52:53;;;;;;;6.35;2.90;;;11.20;79.50;;;;;;7341207;19;110028;-83
2022/04/20 05:55:20;;;;;;;7.47;3.00;;;11.30;79.30;;;;;;7339885;19;107759;-82
2022/04/20 05:57:49;;;;;;;12.35;3.17;;;11.30;79.10;;;;;;7337567;19;109148;-82
2022/04/20 06:00:16;;;;;;;5.97;3.22;;;11.50;79.00;;;;;;7336381;19;109296;-82
2022/04/20 06:02:43;;;;;;;9.15;3.10;;;11.60;79.00;;;;;;7339904;19;108532;-83
2022/04/20 06:05:10;;;;;;;11.05;3.00;;;11.70;78.90;;;;;;7347392;19;106969;-84
2022/04/20 06:07:37;;;;;;;7.60;2.70;;;11.90;78.50;;;;;;7341183;19;107912;-83
2022/04/20 06:10:05;;;;;;;8.15;2.83;;;12.10;78.30;;;;;;7342633;19;108218;-83
2022/04/20 06:12:32;;;;;;;5.57;2.95;;;12.10;77.50;;;;;;7340260;19;108377;-83
2022/04/20 06:14:59;;;;;;;11.95;3.05;;;12.20;76.70;;;;;;7340781;19;108136;-82
2022/04/20 06:17:26;;;;;;;8.73;3.03;;;12.20;76.70;;;;;;7343151;19;108478;-83
2022/04/20 06:19:53;;;;;;;7.47;3.10;;;12.20;76.60;;;;;;7340719;19;108782;-81
2022/04/20 06:22:20;;;;;;;16.48;3.10;;;12.20;76.00;;;;;;7342926;19;107497;-82
2022/04/20 06:24:48;;;;;;;10.88;3.50;;;12.30;76.30;;;;;;7347563;19;109721;-82
2022/04/20 06:27:16;;;;;;;9.88;3.13;;;12.30;75.80;;;;;;7340431;19;107122;-85
2022/04/20 06:29:43;;;;;;;19.08;3.53;;;12.40;75.70;;;;;;7341462;19;107627;-82
2022/04/20 06:32:10;;;;;;;10.57;3.10;;;12.50;75.60;;;;;;7342034;19;108812;-83
2022/04/20 06:34:39;;;;;;;9.48;3.00;;;12.60;75.30;;;;;;7339440;19;107634;-82
2022/04/20 06:37:06;;;;;;;6.85;3.28;;;12.70;75.00;;;;;;7341419;19;108521;-82
2022/04/20 06:39:34;;;;;;;9.15;3.58;;;12.70;74.80;;;;;;7341478;19;108817;-82
2022/04/20 06:42:01;;;;;;;10.13;3.70;;;12.70;75.60;;;;;;7341255;19;108468;-82
2022/04/20 06:44:28;;;;;;;9.77;3.38;;;12.90;75.10;;;;;;7336085;19;107656;-82
2022/04/20 06:46:55;;;;;;;;;;;12.90;74.30;;;;;;7348276;19;112172;-82
2022/04/20 06:49:22;;;;;;;14.02;3.20;;;13.00;74.10;;;;;;7345289;19;108229;-82
2022/04/20 07:00:06;;;;;;;10.48;2.97;;;13.20;73.50;;;;;;7338034;19;109221;-81
2022/04/20 07:02:33;;;;;;;7.97;3.53;;;13.20;73.70;;;;;;7339757;19;107474;-82
2022/04/20 07:05:01;;;;;;;22.23;3.72;;;13.20;73.70;;;;;;7337593;19;108949;-80
2022/04/20 07:07:28;;;;;;;11.10;3.33;;;13.20;72.90;;;;;;7337350;19;112499;-80
2022/04/20 07:10:15;;;;;;;15.80;3.28;;;13.30;72.30;;;;;;7344192;19;109763;-80
2022/04/20 07:12:42;;;;;;;13.95;3.83;;;13.30;72.80;;;;;;7337529;19;109351;-81
2022/04/20 07:15:09;;;;;;;10.70;3.13;;;13.30;71.90;;;;;;7339425;19;108104;-80
2022/04/20 07:17:36;;;;;;;4.60;2.63;;;13.40;72.40;;;;;;7337254;19;108702;-81
2022/04/20 07:20:04;;;;;;;6.88;3.40;;;13.50;71.80;;;;;;7341944;19;110443;-80
2022/04/20 07:22:31;;;;;;;7.93;3.40;;;13.60;72.40;;;;;;7346657;19;110988;-80
2022/04/20 07:24:58;;;;;;;4.80;3.13;;;13.70;72.70;;;;;;7343229;19;108578;-80
2022/04/20 07:27:25;;;;;;;7.05;3.10;;;13.70;72.20;;;;;;7345568;19;108921;-82
2022/04/20 07:29:52;;;;;;;10.95;3.33;;;13.80;72.00;;;;;;7346563;19;108131;-80
2022/04/20 07:32:19;;;;;;;8.27;3.08;;;13.90;72.40;;;;;;7350522;19;108672;-80
2022/04/20 07:34:46;;;;;;;11.63;3.40;;;14.00;71.60;;;;;;7346735;19;108222;-80
2022/04/20 07:37:13;;;;;;;9.52;3.47;;;14.10;71.20;;;;;;7343956;19;108667;-80
2022/04/20 07:39:40;;;;;;;4.03;3.00;;;14.10;69.30;;;;;;7344682;19;109055;-80
2022/04/20 07:42:08;;;;;;;7.63;3.08;;;14.10;70.30;;;;;;7345642;19;107826;-81
2022/04/20 07:44:35;;;;;;;12.05;3.10;;;14.30;70.90;;;;;;7343756;19;108556;-81
2022/04/20 07:47:02;;;;;;;6.53;3.03;;;14.30;70.90;;;;;;7344409;19;109782;-80
2022/04/20 07:52:19;;;;;;;4.82;3.10;;;14.60;70.20;;;;;;7345258;19;107796;-81
2022/04/20 07:54:46;;;;;;;12.93;3.35;;;14.70;69.80;;;;;;7349779;19;109246;-81
2022/04/20 07:57:15;;;;;;;12.95;3.70;;;14.80;70.20;;;;;;7345228;19;108259;-81
2022/04/20 07:59:43;;;;;;;4.00;2.60;;;14.90;69.60;;;;;;7342388;19;108916;-81
2022/04/20 08:02:10;;;;;;;17.90;3.60;;;15.00;68.50;;;;;;7343114;19;111150;-81
2022/04/20 08:04:37;;;;;;;9.95;3.13;;;15.00;68.10;;;;;;7345216;19;108031;-80
2022/04/20 08:07:05;;;;;;;12.32;3.47;;;15.10;68.70;;;;;;7343629;19;108873;-81
2022/04/20 08:09:32;;;;;;;9.85;3.03;;;15.10;67.60;;;;;;7343841;19;109481;-81
2022/04/20 08:11:59;;;;;;;10.77;3.20;;;15.20;67.60;;;;;;7343815;19;108679;-81
2022/04/20 08:14:27;;;;;;;29.33;3.25;;;15.30;67.40;;;;;;7344529;19;109835;-81
2022/04/20 08:16:54;;;;;;;14.52;3.42;;;15.30;66.80;;;;;;7350397;19;107282;-80
2022/04/20 08:19:21;;;;;;;9.40;3.10;;;15.50;67.60;;;;;;7345204;19;108668;-81
2022/04/20 08:21:49;;;;;;;14.32;2.80;;;15.50;66.60;;;;;;7342843;19;107910;-81
2022/04/20 08:24:16;;;;;;;6.88;2.97;;;15.50;65.40;;;;;;7344383;19;108175;-81
2022/04/20 08:26:43;;;;;;;8.30;2.97;;;15.60;64.80;;;;;;7342637;19;108768;-81
2022/04/20 08:29:11;;;;;;;10.20;2.85;;;15.70;65.60;;;;;;7341256;19;107956;-80
2022/04/20 08:31:38;;;;;;;12.68;3.08;;;15.80;65.90;;;;;;7344003;19;109056;-80
2022/04/20 08:34:06;;;;;;;3.88;2.65;;;15.90;66.10;;;;;;7344525;19;108832;-81
2022/04/20 08:36:33;;;;;;;8.85;2.60;;;16.00;65.90;;;;;;7347289;19;107846;-81
2022/04/20 08:39:01;;;;;;;10.07;2.40;;;16.10;66.20;;;;;;7342049;19;109012;-81
2022/04/20 08:41:28;;;;;;;9.25;3.47;;;16.20;66.30;;;;;;7341703;19;108361;-82
2022/04/20 08:43:56;;;;;;;8.38;2.83;;;16.20;63.60;;;;;;7343572;19;108463;-82
2022/04/20 08:46:27;;;;;;;5.38;2.90;;;16.20;63.50;;;;;;7344938;19;108861;-81
2022/04/20 08:48:54;;;;;;;6.57;2.60;;;16.10;64.00;;;;;;7342517;19;108463;-81
2022/04/20 08:52:37;;;;;;;4.40;2.25;;;16.20;64.10;;;;;;7343671;19;112101;-81
2022/04/20 08:54:12;;;;;;;9.65;2.65;;;16.30;61.70;;;;;;7342733;19;108929;-81
2022/04/20 08:59:49;;;;;;;20.13;2.63;;;16.30;61.70;;;;;;7343475;19;108482;-82
2022/04/20 09:02:24;;;;;;;5.72;2.50;;;16.30;60.60;;;;;;7339860;19;108308;-82
2022/04/20 09:04:52;;;;;;;8.00;2.58;;;16.30;60.40;;;;;;7339040;19;108180;-81
2022/04/20 09:07:19;;;;;;;3.13;2.35;;;16.40;61.50;;;;;;7339042;19;107988;-81
2022/04/20 09:09:46;;;;;;;5.10;2.17;;;16.50;61.20;;;;;;7338985;19;108055;-82
2022/04/20 09:12:18;;;;;;;14.77;2.63;;;16.50;60.50;;;;;;7338671;19;108614;-82
2022/04/20 09:14:50;;;;;;;4.95;1.80;;;16.70;60.00;;;;;;7338989;19;109247;-83
2022/04/20 09:17:20;;;;;;;7.30;1.70;;;16.90;59.80;;;;;;7337236;19;108247;-83
2022/04/20 09:19:52;;;;;;;14.93;1.80;;;17.00;58.70;;;;;;7338208;19;108079;-83
2022/04/20 09:22:22;;;;;;;6.88;2.30;;;17.10;58.80;;;;;;7344707;19;111800;-82
2022/04/20 09:25:07;;;;;;;4.88;2.00;;;17.20;59.00;;;;;;7338918;19;108284;-82
2022/04/20 09:27:36;;;;;;;13.48;2.38;;;17.40;59.30;;;;;;7339255;19;109048;-83
2022/04/20 09:30:15;;;;;;;19.38;2.20;;;17.50;58.00;;;;;;7340361;19;107730;-82
2022/04/20 09:32:44;;;;;;;19.42;2.58;;;17.50;57.40;;;;;;7340297;19;108454;-82
2022/04/20 09:35:20;;;;;;;2.50;1.67;;;17.50;57.40;;;;;;7341970;19;109309;-83
2022/04/20 09:38:03;;;;;;;3.78;1.38;;;17.60;58.30;;;;;;7342597;19;108146;-83
2022/04/20 09:40:33;;;;;;;12.35;1.95;;;17.80;57.70;;;;;;7341700;19;108490;-83
2022/04/20 09:43:03;;;;;;;13.30;2.15;;;17.90;57.50;;;;;;7341537;19;112089;-83
2022/04/20 09:45:31;;;;;;;4.88;2.00;;;18.00;58.30;;;;;;7347417;19;108241;-82
2022/04/20 09:50:44;;;;;;;4.60;2.08;;;18.20;57.70;;;;;;7343182;19;107910;-83
2022/04/20 09:53:13;;;;;;;2.85;2.20;;;18.30;58.40;;;;;;7343260;19;108523;-83
2022/04/20 09:55:41;;;;;;;13.68;2.38;;;18.40;57.60;;;;;;7340470;19;109074;-82
2022/04/20 09:58:21;;;;;;;5.57;2.30;;;18.40;56.60;;;;;;7342021;19;111119;-83
2022/04/20 10:00:52;;;;;;;5.50;2.20;;;18.30;55.60;;;;;;7341489;19;108566;-83
2022/04/20 10:03:29;;;;;;;4.43;2.15;;;18.00;56.40;;;;;;7339963;19;108961;-82
2022/04/20 10:05:56;;;;;;;4.38;2.53;;;18.00;57.20;;;;;;7341853;19;108293;-83
2022/04/20 10:08:24;;;;;;;4.30;2.15;;;18.10;57.90;;;;;;7346561;19;107252;-83
2022/04/20 10:10:54;;;;;;;3.95;2.17;;;18.00;55.80;;;;;;7341685;19;107357;-84
2022/04/20 10:13:22;;;;;;;10.60;2.15;;;17.90;55.40;;;;;;7338446;19;108511;-82
2022/04/20 10:16:07;;;;;;;4.68;1.80;;;18.00;57.40;;;;;;7342240;19;109450;-83
2022/04/20 10:18:38;;;;;;;10.07;2.47;;;18.00;56.40;;;;;;7340307;19;107901;-82
2022/04/20 10:21:11;;;;;;;7.13;2.05;;;18.10;57.20;;;;;;7338969;19;110611;-83
2022/04/20 10:23:50;;;;;;;10.57;2.60;;;18.20;57.40;;;;;;7341433;19;107965;-82
2022/04/20 10:26:18;;;;;;;8.50;2.53;;;18.40;57.50;;;;;;7338748;19;107412;-82
2022/04/20 10:28:55;;;;;;;4.18;2.15;;;18.30;55.20;;;;;;7342297;19;109012;-82
2022/04/20 10:31:26;;;;;;;;;;;18.10;56.30;;;;;;7340762;19;109044;-83
2022/04/20 10:33:54;;;;;;;5.68;2.10;;;18.10;57.60;;;;;;7343425;19;107854;-83
2022/04/20 10:36:32;;;;;;;9.30;2.85;;;18.40;57.10;;;;;;7340808;19;109208;-84
2022/04/20 10:39:19;;;;;;;3.33;2.20;;;18.50;55.60;;;;;;7338886;19;108175;-83
2022/04/20 10:42:11;;;;;;;6.53;2.55;;;18.20;56.10;;;;;;7336540;19;108194;-82
2022/04/20 10:44:56;;;;;;;9.07;2.63;;;18.20;56.70;;;;;;7341636;19;108965;-82
2022/04/20 10:47:28;;;;;;;4.85;2.83;;;18.40;57.80;;;;;;7340497;19;108425;-81
2022/04/20 10:50:14;;;;;;;5.43;3.28;;;18.30;55.60;;;;;;7339596;19;109655;-82
2022/04/20 10:52:47;;;;;;;7.10;2.38;;;18.10;56.30;;;;;;7344611;19;108853;-82
2022/04/20 10:55:15;;;;;;;7.63;2.20;;;18.10;57.10;;;;;;7344346;19;107144;-85
2022/04/20 10:57:43;;;;;;;6.95;2.53;;;18.00;55.30;;;;;;7344723;19;112011;-85
2022/04/20 11:00:16;;;;;;;8.30;2.55;;;18.10;58.40;;;;;;7347327;19;109982;-84
2022/04/20 11:02:51;;;;;;;7.18;2.67;;;18.10;56.20;;;;;;7347160;19;108061;-86
2022/04/20 11:05:22;;;;;;;10.10;3.10;;;18.00;56.00;;;;;;7347476;19;108778;-86
2022/04/20 11:08:03;;;;;;;9.05;2.70;;;18.10;57.30;;;;;;7346357;19;107858;-85
2022/04/20 11:10:32;;;;;;;5.85;2.83;;;18.30;56.30;;;;;;7345652;19;109108;-84
2022/04/20 11:19:06;;;;;;;5.85;3.10;;;18.40;56.70;;;;;;7347903;19;108785;-84
2022/04/20 11:21:33;;;;;;;6.93;2.88;;;18.30;55.70;;;;;;7345976;19;107854;-84
2022/04/20 11:24:07;;;;;;;5.00;2.70;;;18.20;56.20;;;;;;7346767;19;108767;-83
2022/04/20 11:26:49;;;;;;;12.57;2.55;;;18.20;56.30;;;;;;7346487;19;109243;-83
2022/04/20 11:29:17;;;;;;;10.13;2.67;;;18.30;56.80;;;;;;7346455;19;111481;-84
2022/04/20 11:31:48;;;;;;;8.98;2.70;;;18.50;56.30;;;;;;7345257;19;107871;-84
2022/04/20 11:34:19;;;;;;;18.98;2.83;;;18.60;56.80;;;;;;7347165;19;110493;-82
2022/04/20 11:37:00;;;;;;;18.40;3.45;;;18.80;56.80;;;;;;7344672;19;108141;-84
2022/04/20 11:39:29;;;;;;;7.55;2.38;;;18.80;56.20;;;;;;7350347;19;108333;-84
2022/04/20 11:41:58;;;;;;;8.75;2.40;;;19.00;56.80;;;;;;7342844;19;111048;-83
2022/04/20 11:44:31;;;;;;;11.27;2.70;;;19.00;55.60;;;;;;7344652;19;108120;-85
2022/04/20 11:47:06;;;;;;;10.68;2.25;;;19.10;55.30;;;;;;7343335;19;110397;-85
2022/04/20 11:49:37;;;;;;;8.32;2.42;;;19.10;55.70;;;;;;7343965;19;109011;-84
2022/04/20 11:52:11;;;;;;;15.05;2.55;;;19.30;56.30;;;;;;7342393;19;108250;-84
2022/04/20 11:54:39;;;;;;;13.27;2.80;;;19.40;55.80;;;;;;7344910;19;107857;-84
2022/04/20 11:57:08;;;;;;;14.52;2.75;;;19.40;56.00;;;;;;7344815;19;109638;-84
2022/04/20 11:59:45;;;;;;;5.00;2.67;;;19.50;56.20;;;;;;7344850;19;108292;-84
2022/04/20 12:02:14;;;;;;;13.13;3.33;;;19.70;55.40;;;;;;7348193;19;110021;-84
2022/04/20 12:04:46;;;;;;;5.05;2.28;;;19.70;55.20;;;;;;7344296;19;108779;-85
2022/04/20 12:07:13;;;;;;;2.97;2.53;;;19.70;55.00;;;;;;7344452;19;111094;-84
2022/04/20 12:09:44;;;;;;;10.68;2.70;;;19.50;54.50;;;;;;7345286;19;108339;-83
2022/04/20 12:12:12;;;;;;;5.97;2.50;;;19.20;53.90;;;;;;7342196;19;108215;-85
2022/04/20 12:14:43;;;;;;;20.77;2.83;;;19.10;55.70;;;;;;7343767;19;109001;-85
2022/04/20 12:17:13;;;;;;;13.82;2.65;;;19.10;55.20;;;;;;7344940;19;107324;-84
2022/04/20 12:19:44;;;;;;;10.45;2.80;;;19.20;55.40;;;;;;7343855;19;111095;-83
2022/04/20 12:22:14;;;;;;;15.27;3.05;;;19.20;55.30;;;;;;7340465;19;108478;-84
2022/04/20 12:24:42;;;;;;;9.73;2.63;;;19.10;55.50;;;;;;7349121;19;110418;-85
2022/04/20 12:27:16;;;;;;;6.75;2.60;;;19.10;56.00;;;;;;7344297;19;107812;-85
2022/04/20 12:29:44;;;;;;;8.90;2.10;;;19.30;55.40;;;;;;7343316;19;107191;-84
2022/04/20 12:32:12;;;;;;;5.15;2.92;;;19.40;54.80;;;;;;7343147;19;108024;-85
2022/04/20 12:34:54;;;;;;;5.57;2.42;;;19.20;54.40;;;;;;7343764;19;107775;-84
2022/04/20 12:37:29;;;;;;;11.10;2.67;;;19.30;54.60;;;;;;7344168;19;108314;-85
2022/04/20 12:39:58;;;;;;;7.30;2.50;;;19.30;54.70;;;;;;7345286;19;110097;-84
2022/04/20 12:42:25;;;;;;;7.07;2.42;;;19.40;54.70;;;;;;7343130;19;109006;-84
2022/04/20 12:45:02;;;;;;;9.65;2.70;;;19.40;55.00;;;;;;7348161;19;107994;-85
2022/04/20 12:47:33;;;;;;;13.80;2.72;;;19.40;55.00;;;;;;7341164;19;109784;-84
2022/04/20 12:50:00;;;;;;;59.30;4.72;;;19.50;54.30;;;;;;7339606;19;111097;-87
2022/04/20 12:52:32;;;;;;;31.15;3.10;;;19.50;55.80;;;;;;7343858;19;108607;-87
2022/04/20 12:55:13;;;;;;;16.70;2.28;;;19.90;55.70;;;;;;7343993;19;108557;-88
2022/04/20 13:03:36;;;;;;;8.63;3.00;;;20.60;53.30;;;;;;7340239;19;109085;-87
2022/04/20 13:06:06;;;;;;;8.38;2.78;;;20.30;53.60;;;;;;7340696;19;108227;-87
2022/04/20 13:08:33;;;;;;;10.55;2.67;;;20.20;53.70;;;;;;7345872;19;107802;-88
2022/04/20 13:11:00;;;;;;;6.25;2.45;;;20.30;54.40;;;;;;7340466;19;108656;-87
2022/04/20 13:13:48;;;;;;;26.95;3.00;;;20.30;54.20;;;;;;7336380;19;110407;-86
2022/04/20 13:16:15;;;;;;;15.63;3.20;;;20.20;53.30;;;;;;7338528;19;109147;-88
2022/04/20 13:18:42;;;;;;;16.83;2.90;;;20.10;54.20;;;;;;7339896;19;107694;-88
2022/04/20 13:21:10;;;;;;;18.17;2.92;;;20.20;53.60;;;;;;7340565;19;108236;-88
2022/04/20 13:23:37;;;;;;;12.45;2.80;;;20.40;54.20;;;;;;7340073;19;108978;-89
2022/04/20 13:28:50;;;;;;;22.73;2.92;;;20.50;53.80;;;;;;7338082;19;108264;-86
2022/04/20 13:31:17;;;;;;;11.43;2.35;;;20.60;53.60;;;;;;7344843;19;108960;-86